sensor_id;sensor_type;location;lat;lon;timestamp;temperature;humidity
64874;HTU21D;51367;45.204;38.576;2023-08-20T10:39:20;37.70;25.33
64874;HTU21D;51367;45.204;38.576;2023-08-20T10:42:21;37.67;24.93
64874;HTU21D;51367;45.204;38.576;2023-08-20T10:45:09;37.65;24.59
64874;HTU21D;51367;45.204;38.576;2023-08-20T10:47:53;37.63;24.53
64874;HTU21D;51367;45.204;38.576;2023-08-20T10:50:19;37.63;24.51
64874;HTU21D;51367;45.204;38.576;2023-08-20T10:52:49;37.66;24.54
64874;HTU21D;51367;45.204;38.576;2023-08-20T10:55:21;37.73;24.40
64874;HTU21D;51367;45.204;38.576;2023-08-20T10:57:54;37.76;24.43
64874;HTU21D;51367;45.204;38.576;2023-08-20T11:00:20;37.74;24.42
64874;HTU21D;51367;45.204;38.576;2023-08-20T11:02:46;37.77;24.41
64874;HTU21D;51367;45.204;38.576;2023-08-20T11:05:19;37.81;24.24
64874;HTU21D;51367;45.204;38.576;2023-08-20T11:07:48;37.81;24.35
64874;HTU21D;51367;45.204;38.576;2023-08-20T11:10:17;37.81;24.35
64874;HTU21D;51367;45.204;38.576;2023-08-20T11:12:45;37.84;24.20
64874;HTU21D;51367;45.204;38.576;2023-08-20T11:15:12;37.88;24.18
64874;HTU21D;51367;45.204;38.576;2023-08-20T11:17:47;37.97;24.01
64874;HTU21D;51367;45.204;38.576;2023-08-20T11:20:16;38.03;23.98
64874;HTU21D;51367;45.204;38.576;2023-08-20T11:22:42;38.02;24.06
64874;HTU21D;51367;45.204;38.576;2023-08-20T11:25:11;38.01;23.96
64874;HTU21D;51367;45.204;38.576;2023-08-20T11:27:42;38.02;23.94
64874;HTU21D;51367;45.204;38.576;2023-08-20T11:30:09;38.03;23.87
64874;HTU21D;51367;45.204;38.576;2023-08-20T11:32:38;38.03;23.68
64874;HTU21D;51367;45.204;38.576;2023-08-20T11:35:07;38.01;23.56
64874;HTU21D;51367;45.204;38.576;2023-08-20T11:37:34;37.96;23.70
64874;HTU21D;51367;45.204;38.576;2023-08-20T11:40:00;38.02;23.79
64874;HTU21D;51367;45.204;38.576;2023-08-20T11:42:26;38.10;23.62
64874;HTU21D;51367;45.204;38.576;2023-08-20T11:44:55;38.11;23.37
64874;HTU21D;51367;45.204;38.576;2023-08-20T11:47:22;38.09;23.46
64874;HTU21D;51367;45.204;38.576;2023-08-20T11:49:47;38.09;23.52
64874;HTU21D;51367;45.204;38.576;2023-08-20T11:52:13;38.14;23.51
64874;HTU21D;51367;45.204;38.576;2023-08-20T11:54:39;38.17;23.45
64874;HTU21D;51367;45.204;38.576;2023-08-20T11:57:07;38.20;23.43
64874;HTU21D;51367;45.204;38.576;2023-08-20T11:59:33;38.19;23.38
64874;HTU21D;51367;45.204;38.576;2023-08-20T12:02:01;38.18;23.47
64874;HTU21D;51367;45.204;38.576;2023-08-20T12:04:29;38.24;23.40
64874;HTU21D;51367;45.204;38.576;2023-08-20T12:07:09;38.28;23.15
64874;HTU21D;51367;45.204;38.576;2023-08-20T12:09:35;38.28;23.10
64874;HTU21D;51367;45.204;38.576;2023-08-20T12:12:02;38.25;22.98
64874;HTU21D;51367;45.204;38.576;2023-08-20T12:14:28;38.21;22.92
64874;HTU21D;51367;45.204;38.576;2023-08-20T12:16:55;38.20;22.96
64874;HTU21D;51367;45.204;38.576;2023-08-20T12:19:21;38.19;22.82
64874;HTU21D;51367;45.204;38.576;2023-08-20T12:21:47;38.17;22.82
64874;HTU21D;51367;45.204;38.576;2023-08-20T12:24:14;38.12;22.73
64874;HTU21D;51367;45.204;38.576;2023-08-20T12:26:41;38.14;22.84
64874;HTU21D;51367;45.204;38.576;2023-08-20T12:29:07;38.12;22.71
64874;HTU21D;51367;45.204;38.576;2023-08-20T12:31:33;38.09;22.70
64874;HTU21D;51367;45.204;38.576;2023-08-20T12:34:00;38.11;22.53
64874;HTU21D;51367;45.204;38.576;2023-08-20T12:36:26;38.09;22.53
64874;HTU21D;51367;45.204;38.576;2023-08-20T12:38:52;38.07;22.70
64874;HTU21D;51367;45.204;38.576;2023-08-20T12:41:21;38.14;22.76
64874;HTU21D;51367;45.204;38.576;2023-08-20T12:43:47;38.17;22.80
64874;HTU21D;51367;45.204;38.576;2023-08-20T12:46:13;38.19;22.75
64874;HTU21D;51367;45.204;38.576;2023-08-20T12:48:39;38.20;22.63
64874;HTU21D;51367;45.204;38.576;2023-08-20T12:51:05;38.19;22.57
64874;HTU21D;51367;45.204;38.576;2023-08-20T12:53:32;38.17;22.66
64874;HTU21D;51367;45.204;38.576;2023-08-20T12:55:58;38.19;22.64
64874;HTU21D;51367;45.204;38.576;2023-08-20T12:58:24;38.19;22.55
64874;HTU21D;51367;45.204;38.576;2023-08-20T13:00:50;38.16;22.40
64874;HTU21D;51367;45.204;38.576;2023-08-20T13:03:18;38.14;22.34
64874;HTU21D;51367;45.204;38.576;2023-08-20T13:05:44;38.01;22.43
64874;HTU21D;51367;45.204;38.576;2023-08-20T13:08:11;37.96;22.52
64874;HTU21D;51367;45.204;38.576;2023-08-20T13:10:40;37.99;22.51
64874;HTU21D;51367;45.204;38.576;2023-08-20T13:13:09;38.04;22.43
64874;HTU21D;51367;45.204;38.576;2023-08-20T13:15:35;37.97;22.35
64874;HTU21D;51367;45.204;38.576;2023-08-20T13:18:02;37.78;22.47
64874;HTU21D;51367;45.204;38.576;2023-08-20T13:20:28;37.70;22.61
64874;HTU21D;51367;45.204;38.576;2023-08-20T13:22:54;37.69;22.63
64874;HTU21D;51367;45.204;38.576;2023-08-20T13:25:20;37.71;22.60
64874;HTU21D;51367;45.204;38.576;2023-08-20T13:27:49;37.74;22.49
64874;HTU21D;51367;45.204;38.576;2023-08-20T13:30:15;37.71;22.27
64874;HTU21D;51367;45.204;38.576;2023-08-20T13:32:41;37.72;22.33
64874;HTU21D;51367;45.204;38.576;2023-08-20T13:35:08;37.72;22.35
64874;HTU21D;51367;45.204;38.576;2023-08-20T13:37:34;37.72;22.34
64874;HTU21D;51367;45.204;38.576;2023-08-20T13:40:00;37.73;22.37
64874;HTU21D;51367;45.204;38.576;2023-08-20T13:42:27;37.70;22.44
64874;HTU21D;51367;45.204;38.576;2023-08-20T13:44:53;37.72;22.51
64874;HTU21D;51367;45.204;38.576;2023-08-20T13:47:19;37.73;22.34
64874;HTU21D;51367;45.204;38.576;2023-08-20T13:49:44;37.69;22.18
64874;HTU21D;51367;45.204;38.576;2023-08-20T13:52:10;37.64;22.26
64874;HTU21D;51367;45.204;38.576;2023-08-20T13:54:36;37.62;22.21
64874;HTU21D;51367;45.204;38.576;2023-08-20T13:57:03;37.61;22.21
64874;HTU21D;51367;45.204;38.576;2023-08-20T13:59:29;37.60;22.24
64874;HTU21D;51367;45.204;38.576;2023-08-20T14:01:56;37.60;22.22
64874;HTU21D;51367;45.204;38.576;2023-08-20T14:04:22;37.59;22.31
64874;HTU21D;51367;45.204;38.576;2023-08-20T14:06:48;37.56;22.28
64874;HTU21D;51367;45.204;38.576;2023-08-20T14:09:14;37.52;22.20
64874;HTU21D;51367;45.204;38.576;2023-08-20T14:11:40;37.47;22.21
64874;HTU21D;51367;45.204;38.576;2023-08-20T14:14:05;37.42;22.17
64874;HTU21D;51367;45.204;38.576;2023-08-20T14:16:31;37.37;22.18
64874;HTU21D;51367;45.204;38.576;2023-08-20T14:18:57;37.33;22.29
64874;HTU21D;51367;45.204;38.576;2023-08-20T14:21:23;37.33;22.31
64874;HTU21D;51367;45.204;38.576;2023-08-20T14:23:49;37.32;22.36
64874;HTU21D;51367;45.204;38.576;2023-08-20T14:26:15;37.31;22.23
64874;HTU21D;51367;45.204;38.576;2023-08-20T14:28:41;37.25;22.21
64874;HTU21D;51367;45.204;38.576;2023-08-20T14:31:09;37.20;22.23
64874;HTU21D;51367;45.204;38.576;2023-08-20T14:33:35;37.16;22.27
64874;HTU21D;51367;45.204;38.576;2023-08-20T14:36:01;37.13;22.32
64874;HTU21D;51367;45.204;38.576;2023-08-20T14:38:30;37.08;22.27
64874;HTU21D;51367;45.204;38.576;2023-08-20T14:41:03;37.02;22.34
64874;HTU21D;51367;45.204;38.576;2023-08-20T14:43:29;36.96;22.39
64874;HTU21D;51367;45.204;38.576;2023-08-20T14:45:56;36.91;22.46
64874;HTU21D;51367;45.204;38.576;2023-08-20T14:48:23;36.86;22.39
64874;HTU21D;51367;45.204;38.576;2023-08-20T14:50:51;36.82;22.47
64874;HTU21D;51367;45.204;38.576;2023-08-20T14:53:18;36.77;22.44
64874;HTU21D;51367;45.204;38.576;2023-08-20T14:55:45;36.71;22.53
64874;HTU21D;51367;45.204;38.576;2023-08-20T14:58:11;36.67;22.52
64874;HTU21D;51367;45.204;38.576;2023-08-20T15:00:37;36.62;22.47
64874;HTU21D;51367;45.204;38.576;2023-08-20T15:03:03;36.57;22.50
64874;HTU21D;51367;45.204;38.576;2023-08-20T15:05:30;36.52;22.53
64874;HTU21D;51367;45.204;38.576;2023-08-20T15:07:56;36.46;22.57
64874;HTU21D;51367;45.204;38.576;2023-08-20T15:10:22;36.39;22.62
64874;HTU21D;51367;45.204;38.576;2023-08-20T15:12:48;36.32;22.61
64874;HTU21D;51367;45.204;38.576;2023-08-20T15:15:14;36.28;22.66
64874;HTU21D;51367;45.204;38.576;2023-08-20T15:17:40;36.25;22.73
64874;HTU21D;51367;45.204;38.576;2023-08-20T15:20:06;36.17;22.72
64874;HTU21D;51367;45.204;38.576;2023-08-20T15:22:39;36.12;22.69
64874;HTU21D;51367;45.204;38.576;2023-08-20T15:25:05;36.04;22.79
64874;HTU21D;51367;45.204;38.576;2023-08-20T15:27:33;35.97;22.87
64874;HTU21D;51367;45.204;38.576;2023-08-20T15:30:04;35.90;23.00
64874;HTU21D;51367;45.204;38.576;2023-08-20T15:32:30;35.82;23.10
64874;HTU21D;51367;45.204;38.576;2023-08-20T15:34:56;35.74;23.19
64874;HTU21D;51367;45.204;38.576;2023-08-20T15:37:22;35.67;23.29
64874;HTU21D;51367;45.204;38.576;2023-08-20T15:39:48;35.55;23.41
64874;HTU21D;51367;45.204;38.576;2023-08-20T15:42:14;35.47;23.50
64874;HTU21D;51367;45.204;38.576;2023-08-20T15:44:40;35.39;23.61
64874;HTU21D;51367;45.204;38.576;2023-08-20T15:47:06;35.30;23.69
64874;HTU21D;51367;45.204;38.576;2023-08-20T15:49:33;35.19;23.78
64874;HTU21D;51367;45.204;38.576;2023-08-20T15:52:00;35.08;23.85
64874;HTU21D;51367;45.204;38.576;2023-08-20T15:54:26;35.00;23.92
64874;HTU21D;51367;45.204;38.576;2023-08-20T15:56:52;34.90;24.01
64874;HTU21D;51367;45.204;38.576;2023-08-20T15:59:19;34.81;24.13
64874;HTU21D;51367;45.204;38.576;2023-08-20T16:01:45;34.70;24.21
64874;HTU21D;51367;45.204;38.576;2023-08-20T16:04:11;34.57;24.32
64874;HTU21D;51367;45.204;38.576;2023-08-20T16:06:37;34.48;24.45
64874;HTU21D;51367;45.204;38.576;2023-08-20T16:09:03;34.35;24.57
64874;HTU21D;51367;45.204;38.576;2023-08-20T16:11:31;34.24;24.70
64874;HTU21D;51367;45.204;38.576;2023-08-20T16:13:57;34.12;24.82
64874;HTU21D;51367;45.204;38.576;2023-08-20T16:16:23;34.01;24.93
64874;HTU21D;51367;45.204;38.576;2023-08-20T16:18:49;33.91;25.03
64874;HTU21D;51367;45.204;38.576;2023-08-20T16:21:15;33.78;25.19
64874;HTU21D;51367;45.204;38.576;2023-08-20T16:23:41;33.65;25.31
64874;HTU21D;51367;45.204;38.576;2023-08-20T16:26:08;33.55;25.43
64874;HTU21D;51367;45.204;38.576;2023-08-20T16:28:35;33.43;25.54
64874;HTU21D;51367;45.204;38.576;2023-08-20T16:31:01;33.29;25.68
64874;HTU21D;51367;45.204;38.576;2023-08-20T16:33:28;33.17;25.89
64874;HTU21D;51367;45.204;38.576;2023-08-20T16:35:54;33.03;26.13
64874;HTU21D;51367;45.204;38.576;2023-08-20T16:38:20;32.88;26.57
64874;HTU21D;51367;45.204;38.576;2023-08-20T16:40:48;32.73;26.87
64874;HTU21D;51367;45.204;38.576;2023-08-20T16:43:14;32.53;27.26
64874;HTU21D;51367;45.204;38.576;2023-08-20T16:45:40;32.33;27.61
64874;HTU21D;51367;45.204;38.576;2023-08-20T16:48:06;32.14;27.94
64874;HTU21D;51367;45.204;38.576;2023-08-20T16:50:32;31.89;28.31
64874;HTU21D;51367;45.204;38.576;2023-08-20T16:52:59;31.69;28.66
64874;HTU21D;51367;45.204;38.576;2023-08-20T16:55:25;31.52;29.00
64874;HTU21D;51367;45.204;38.576;2023-08-20T16:57:51;31.37;29.35
64874;HTU21D;51367;45.204;38.576;2023-08-20T17:00:19;31.20;29.69
64874;HTU21D;51367;45.204;38.576;2023-08-20T17:02:45;31.05;29.99
64874;HTU21D;51367;45.204;38.576;2023-08-20T17:05:11;30.90;30.21
64874;HTU21D;51367;45.204;38.576;2023-08-20T17:07:37;30.71;30.51
64874;HTU21D;51367;45.204;38.576;2023-08-20T17:10:06;30.52;30.87
64874;HTU21D;51367;45.204;38.576;2023-08-20T17:12:32;30.34;31.12
64874;HTU21D;51367;45.204;38.576;2023-08-20T17:14:58;30.19;31.42
64874;HTU21D;51367;45.204;38.576;2023-08-20T17:17:27;30.04;31.83
64874;HTU21D;51367;45.204;38.576;2023-08-20T17:19:54;29.92;32.02
64874;HTU21D;51367;45.204;38.576;2023-08-20T17:22:20;29.79;32.31
64874;HTU21D;51367;45.204;38.576;2023-08-20T17:24:46;29.67;32.59
64874;HTU21D;51367;45.204;38.576;2023-08-20T17:27:12;29.53;32.85
64874;HTU21D;51367;45.204;38.576;2023-08-20T17:29:37;29.44;33.05
64874;HTU21D;51367;45.204;38.576;2023-08-20T17:32:03;29.28;33.31
64874;HTU21D;51367;45.204;38.576;2023-08-20T17:34:29;29.13;33.57
64874;HTU21D;51367;45.204;38.576;2023-08-20T17:36:56;28.98;33.91
64874;HTU21D;51367;45.204;38.576;2023-08-20T17:39:22;28.84;34.29
64874;HTU21D;51367;45.204;38.576;2023-08-20T17:41:48;28.72;34.57
64874;HTU21D;51367;45.204;38.576;2023-08-20T17:44:14;28.62;34.78
64874;HTU21D;51367;45.204;38.576;2023-08-20T17:46:48;28.54;35.19
64874;HTU21D;51367;45.204;38.576;2023-08-20T17:49:14;28.47;35.15
64874;HTU21D;51367;45.204;38.576;2023-08-20T17:51:40;28.40;35.37
64874;HTU21D;51367;45.204;38.576;2023-08-20T17:54:06;28.32;35.56
64874;HTU21D;51367;45.204;38.576;2023-08-20T17:56:33;28.26;35.73
64874;HTU21D;51367;45.204;38.576;2023-08-20T17:58:59;28.17;35.87
64874;HTU21D;51367;45.204;38.576;2023-08-20T18:01:25;28.09;35.98
64874;HTU21D;51367;45.204;38.576;2023-08-20T18:03:51;27.96;36.16
64874;HTU21D;51367;45.204;38.576;2023-08-20T18:06:18;27.86;36.40
64874;HTU21D;51367;45.204;38.576;2023-08-20T18:08:44;27.80;36.60
64874;HTU21D;51367;45.204;38.576;2023-08-20T18:11:10;27.74;36.73
64874;HTU21D;51367;45.204;38.576;2023-08-20T18:13:37;27.68;36.94
64874;HTU21D;51367;45.204;38.576;2023-08-20T18:16:04;27.63;37.12
64874;HTU21D;51367;45.204;38.576;2023-08-20T18:18:29;27.54;37.21
64874;HTU21D;51367;45.204;38.576;2023-08-20T18:20:58;27.49;37.34
64874;HTU21D;51367;45.204;38.576;2023-08-20T18:23:24;27.43;37.51
64874;HTU21D;51367;45.204;38.576;2023-08-20T18:25:52;27.39;37.66
64874;HTU21D;51367;45.204;38.576;2023-08-20T18:28:19;27.32;37.76
64874;HTU21D;51367;45.204;38.576;2023-08-20T18:30:49;27.24;37.98
64874;HTU21D;51367;45.204;38.576;2023-08-20T18:33:17;27.14;37.90
64874;HTU21D;51367;45.204;38.576;2023-08-20T18:35:43;27.05;38.02
64874;HTU21D;51367;45.204;38.576;2023-08-20T18:41:02;26.99;37.66
64874;HTU21D;51367;45.204;38.576;2023-08-20T18:43:48;27.05;37.32
64874;HTU21D;51367;45.204;38.576;2023-08-20T18:46:14;27.12;37.04
64874;HTU21D;51367;45.204;38.576;2023-08-20T18:48:40;27.17;36.88
64874;HTU21D;51367;45.204;38.576;2023-08-20T18:51:06;27.22;36.96
64874;HTU21D;51367;45.204;38.576;2023-08-20T18:53:35;27.22;36.87
64874;HTU21D;51367;45.204;38.576;2023-08-20T18:56:02;27.19;36.71
64874;HTU21D;51367;45.204;38.576;2023-08-20T18:58:28;27.17;36.63
64874;HTU21D;51367;45.204;38.576;2023-08-20T19:00:54;27.17;36.65
64874;HTU21D;51367;45.204;38.576;2023-08-20T19:03:19;27.16;36.64
64874;HTU21D;51367;45.204;38.576;2023-08-20T19:05:46;27.14;36.59
64874;HTU21D;51367;45.204;38.576;2023-08-20T19:08:12;27.13;36.47
64874;HTU21D;51367;45.204;38.576;2023-08-20T19:10:40;27.11;36.37
64874;HTU21D;51367;45.204;38.576;2023-08-20T19:13:06;27.12;36.24
64874;HTU21D;51367;45.204;38.576;2023-08-20T19:15:49;27.12;36.14
64874;HTU21D;51367;45.204;38.576;2023-08-20T19:18:16;27.14;36.07
64874;HTU21D;51367;45.204;38.576;2023-08-20T19:20:51;27.15;36.00
64874;HTU21D;51367;45.204;38.576;2023-08-20T19:23:17;27.17;35.98
64874;HTU21D;51367;45.204;38.576;2023-08-20T19:25:44;27.17;35.92
64874;HTU21D;51367;45.204;38.576;2023-08-20T19:28:11;27.16;35.85
64874;HTU21D;51367;45.204;38.576;2023-08-20T19:30:48;27.17;35.79
64874;HTU21D;51367;45.204;38.576;2023-08-20T19:33:14;27.20;35.70
64874;HTU21D;51367;45.204;38.576;2023-08-20T19:35:41;27.21;35.63
64874;HTU21D;51367;45.204;38.576;2023-08-20T19:38:07;27.22;35.59
64874;HTU21D;51367;45.204;38.576;2023-08-20T19:40:37;27.21;35.56
64874;HTU21D;51367;45.204;38.576;2023-08-20T19:43:06;27.22;35.53
64874;HTU21D;51367;45.204;38.576;2023-08-20T19:45:32;27.20;35.50
64874;HTU21D;51367;45.204;38.576;2023-08-20T19:47:58;27.19;35.50
64874;HTU21D;51367;45.204;38.576;2023-08-20T19:50:24;27.14;35.49
64874;HTU21D;51367;45.204;38.576;2023-08-20T19:52:50;27.13;35.49
64874;HTU21D;51367;45.204;38.576;2023-08-20T19:55:17;27.11;35.49
64874;HTU21D;51367;45.204;38.576;2023-08-20T19:57:43;27.09;35.48
64874;HTU21D;51367;45.204;38.576;2023-08-20T20:00:10;27.08;35.50
64874;HTU21D;51367;45.204;38.576;2023-08-20T20:02:42;27.04;35.50
64874;HTU21D;51367;45.204;38.576;2023-08-20T20:05:09;27.01;35.46
64874;HTU21D;51367;45.204;38.576;2023-08-20T20:07:38;26.97;35.47
64874;HTU21D;51367;45.204;38.576;2023-08-20T20:10:04;26.97;35.50
64874;HTU21D;51367;45.204;38.576;2023-08-20T20:12:30;26.96;35.50
64874;HTU21D;51367;45.204;38.576;2023-08-20T20:14:58;26.97;35.50
64874;HTU21D;51367;45.204;38.576;2023-08-20T20:17:24;26.98;35.50
64874;HTU21D;51367;45.204;38.576;2023-08-20T20:19:50;26.96;35.50
64874;HTU21D;51367;45.204;38.576;2023-08-20T20:22:16;26.93;35.53
64874;HTU21D;51367;45.204;38.576;2023-08-20T20:24:42;26.92;35.56
64874;HTU21D;51367;45.204;38.576;2023-08-20T20:27:09;26.86;35.60
64874;HTU21D;51367;45.204;38.576;2023-08-20T20:29:35;26.80;35.66
64874;HTU21D;51367;45.204;38.576;2023-08-20T20:32:01;26.72;35.73
64874;HTU21D;51367;45.204;38.576;2023-08-20T20:34:27;26.64;35.84
64874;HTU21D;51367;45.204;38.576;2023-08-20T20:36:52;26.56;35.88
64874;HTU21D;51367;45.204;38.576;2023-08-20T20:39:18;26.49;35.95
64874;HTU21D;51367;45.204;38.576;2023-08-20T20:41:47;26.41;36.01
64874;HTU21D;51367;45.204;38.576;2023-08-20T20:44:13;26.34;36.11
64874;HTU21D;51367;45.204;38.576;2023-08-20T20:46:39;26.28;36.17
64874;HTU21D;51367;45.204;38.576;2023-08-20T20:49:04;26.21;36.24
64874;HTU21D;51367;45.204;38.576;2023-08-20T20:51:31;26.15;36.30
64874;HTU21D;51367;45.204;38.576;2023-08-20T20:53:57;26.05;36.39
64874;HTU21D;51367;45.204;38.576;2023-08-20T20:56:23;25.96;36.49
64874;HTU21D;51367;45.204;38.576;2023-08-20T20:58:49;25.90;36.59
64874;HTU21D;51367;45.204;38.576;2023-08-20T21:01:14;25.84;36.66
64874;HTU21D;51367;45.204;38.576;2023-08-20T21:03:40;25.79;36.68
64874;HTU21D;51367;45.204;38.576;2023-08-20T21:06:06;25.73;36.76
64874;HTU21D;51367;45.204;38.576;2023-08-20T21:08:33;25.67;36.81
64874;HTU21D;51367;45.204;38.576;2023-08-20T21:10:59;25.65;36.85
64874;HTU21D;51367;45.204;38.576;2023-08-20T21:13:25;25.60;36.90
64874;HTU21D;51367;45.204;38.576;2023-08-20T21:15:51;25.59;36.93
64874;HTU21D;51367;45.204;38.576;2023-08-20T21:18:17;25.58;37.06
64874;HTU21D;51367;45.204;38.576;2023-08-20T21:20:42;25.54;37.11
64874;HTU21D;51367;45.204;38.576;2023-08-20T21:23:08;25.51;37.17
64874;HTU21D;51367;45.204;38.576;2023-08-20T21:25:35;25.48;37.23
64874;HTU21D;51367;45.204;38.576;2023-08-20T21:28:00;25.44;37.28
64874;HTU21D;51367;45.204;38.576;2023-08-20T21:30:26;25.40;37.33
64874;HTU21D;51367;45.204;38.576;2023-08-20T21:32:52;25.36;37.34
64874;HTU21D;51367;45.204;38.576;2023-08-20T21:35:18;25.36;37.37
64874;HTU21D;51367;45.204;38.576;2023-08-20T21:37:44;25.35;37.40
64874;HTU21D;51367;45.204;38.576;2023-08-20T21:40:11;25.35;37.43
64874;HTU21D;51367;45.204;38.576;2023-08-20T21:42:37;25.34;37.43
64874;HTU21D;51367;45.204;38.576;2023-08-20T21:45:04;25.35;37.49
64874;HTU21D;51367;45.204;38.576;2023-08-20T21:47:30;25.33;37.50
64874;HTU21D;51367;45.204;38.576;2023-08-20T21:49:59;25.31;37.54
64874;HTU21D;51367;45.204;38.576;2023-08-20T21:52:25;25.31;37.58
64874;HTU21D;51367;45.204;38.576;2023-08-20T21:54:51;25.27;37.62
64874;HTU21D;51367;45.204;38.576;2023-08-20T21:57:18;25.25;37.69
64874;HTU21D;51367;45.204;38.576;2023-08-20T21:59:49;25.23;37.75
64874;HTU21D;51367;45.204;38.576;2023-08-20T22:02:16;25.20;37.78
64874;HTU21D;51367;45.204;38.576;2023-08-20T22:04:42;25.18;37.86
64874;HTU21D;51367;45.204;38.576;2023-08-20T22:07:08;25.16;37.88
64874;HTU21D;51367;45.204;38.576;2023-08-20T22:09:34;25.13;37.91
64874;HTU21D;51367;45.204;38.576;2023-08-20T22:12:00;25.10;37.98
64874;HTU21D;51367;45.204;38.576;2023-08-20T22:14:26;25.05;38.02
64874;HTU21D;51367;45.204;38.576;2023-08-20T22:16:53;25.03;38.06
64874;HTU21D;51367;45.204;38.576;2023-08-20T22:19:19;25.00;38.14
64874;HTU21D;51367;45.204;38.576;2023-08-20T22:21:48;24.95;38.23
64874;HTU21D;51367;45.204;38.576;2023-08-20T22:24:15;24.91;38.26
64874;HTU21D;51367;45.204;38.576;2023-08-20T22:26:48;24.86;38.34
64874;HTU21D;51367;45.204;38.576;2023-08-20T22:29:15;24.82;38.37
64874;HTU21D;51367;45.204;38.576;2023-08-20T22:31:42;24.77;38.43
64874;HTU21D;51367;45.204;38.576;2023-08-20T22:34:07;24.73;38.51
64874;HTU21D;51367;45.204;38.576;2023-08-20T22:36:33;24.66;38.60
64874;HTU21D;51367;45.204;38.576;2023-08-20T22:39:00;24.62;38.68
64874;HTU21D;51367;45.204;38.576;2023-08-20T22:41:26;24.57;38.74
64874;HTU21D;51367;45.204;38.576;2023-08-20T22:43:52;24.51;38.82
64874;HTU21D;51367;45.204;38.576;2023-08-20T22:46:18;24.48;38.90
64874;HTU21D;51367;45.204;38.576;2023-08-20T22:48:43;24.42;38.97
64874;HTU21D;51367;45.204;38.576;2023-08-20T22:51:10;24.36;39.10
64874;HTU21D;51367;45.204;38.576;2023-08-20T22:53:36;24.29;39.22
64874;HTU21D;51367;45.204;38.576;2023-08-20T22:56:01;24.23;39.30
64874;HTU21D;51367;45.204;38.576;2023-08-20T22:58:28;24.14;39.49
64874;HTU21D;51367;45.204;38.576;2023-08-20T23:00:54;24.12;39.63
64874;HTU21D;51367;45.204;38.576;2023-08-20T23:03:20;24.06;39.68
64874;HTU21D;51367;45.204;38.576;2023-08-20T23:05:46;24.02;39.69
64874;HTU21D;51367;45.204;38.576;2023-08-20T23:08:11;23.96;39.76
64874;HTU21D;51367;45.204;38.576;2023-08-20T23:10:37;23.90;39.81
64874;HTU21D;51367;45.204;38.576;2023-08-20T23:13:03;23.87;39.85
64874;HTU21D;51367;45.204;38.576;2023-08-20T23:15:29;23.84;39.89
64874;HTU21D;51367;45.204;38.576;2023-08-20T23:17:55;23.83;39.91
64874;HTU21D;51367;45.204;38.576;2023-08-20T23:20:21;23.79;39.99
64874;HTU21D;51367;45.204;38.576;2023-08-20T23:22:47;23.76;40.13
64874;HTU21D;51367;45.204;38.576;2023-08-20T23:25:13;23.74;40.20
64874;HTU21D;51367;45.204;38.576;2023-08-20T23:27:40;23.76;40.22
64874;HTU21D;51367;45.204;38.576;2023-08-20T23:30:06;23.71;40.26
64874;HTU21D;51367;45.204;38.576;2023-08-20T23:32:33;23.70;40.36
64874;HTU21D;51367;45.204;38.576;2023-08-20T23:34:59;23.69;40.50
64874;HTU21D;51367;45.204;38.576;2023-08-20T23:37:25;23.65;40.59
64874;HTU21D;51367;45.204;38.576;2023-08-20T23:39:51;23.62;40.65
64874;HTU21D;51367;45.204;38.576;2023-08-20T23:42:17;23.59;40.71
64874;HTU21D;51367;45.204;38.576;2023-08-20T23:44:43;23.55;40.78
64874;HTU21D;51367;45.204;38.576;2023-08-20T23:47:09;23.50;40.88
64874;HTU21D;51367;45.204;38.576;2023-08-20T23:49:36;23.47;40.95
64874;HTU21D;51367;45.204;38.576;2023-08-20T23:52:02;23.41;41.05
64874;HTU21D;51367;45.204;38.576;2023-08-20T23:54:28;23.39;41.17
64874;HTU21D;51367;45.204;38.576;2023-08-20T23:56:54;23.36;41.28
64874;HTU21D;51367;45.204;38.576;2023-08-20T23:59:20;23.29;41.44
